• Join FlightAware (Why Join?)
  • Login
  • US Flag 
04:58AM EDT


 

Airport Tracker/Info


-or-


 

Live Flight TrackerFlight Track Log ✈ N6ZQ ✈ 22-Jul-2013 ✈ VA42 - W29

Flight Track Log - Related Links

Times and Time Zones

All times are in EDT time to prevent confusion due to time zone crossing. See the N6ZQ flight status page for this flight to view local times or setup timezone preferences in your user account.

Time Position Orientation Groundspeed Altitude Reporting Facility
EDT Latitude Longitude Course Direction KTS MPH feet Rate Location/Type
12:03PM 38.3333 -77.3667 52° Northeast 156 180 2,500  Level Potomac TRACON
12:04PM 38.3667 -77.3167 50° Northeast 184 212 3,000 180 Climbing Potomac TRACON
12:05PM 38.4000 -77.2500 57° Northeast 188 216 2,900 -60 Descending Potomac TRACON
12:06PM 38.4333 -77.2000 50° Northeast 187 215 2,900  Level Potomac TRACON
12:07PM 38.4500 -77.1500 67° East 186 214 2,900  Level Potomac TRACON
12:08PM 38.4833 -77.1000 50° Northeast 184 212 2,900  Level Potomac TRACON
12:09PM 38.4593 -77.1351 52° Northeast  Level FlightAware Approximate
12:09PM 38.5167 -77.0500 50° Northeast 177 204 3,000  Level Potomac TRACON
12:10PM 38.5500 -77.0000 50° Northeast 185 213 3,000  Level Potomac TRACON
12:11PM 38.5833 -76.9667 38° Northeast 184 212 3,000  Level Potomac TRACON
12:12PM 38.6167 -76.9000 57° Northeast 186 214 3,000  Level Potomac TRACON
12:13PM 38.6333 -76.8500 67° East 182 209 3,000  Level Potomac TRACON
12:14PM 38.6667 -76.8000 49° Northeast 182 209 3,000  Level Potomac TRACON
12:15PM 38.7000 -76.7500 49° Northeast 183 211 3,000  Level Potomac TRACON
12:16PM 38.7333 -76.7000 49° Northeast 178 205 3,000  Level Potomac TRACON
12:17PM 38.7667 -76.6500 49° Northeast 182 209 3,000  Level Potomac TRACON
12:18PM 38.8000 -76.6000 49° Northeast 174 200 3,000 -240 Level Potomac TRACON
12:19PM 38.8333 -76.5500 49° Northeast 191 220 2,600 -540 Descending Potomac TRACON
12:20PM 38.8667 -76.5000 49° Northeast 198 228 2,000 -300 Descending Potomac TRACON
12:21PM 38.8833 -76.4500 67° East 174 200 2,000 -420 Level Potomac TRACON
12:22PM 38.9167 -76.4000 49° Northeast 188 216 1,300 -780 Descending Potomac TRACON